createdAt,value
2023-05-17T00:00:27.425Z,79.20
2023-05-17T00:02:55.192Z,78.80
2023-05-17T00:05:24.546Z,79.20
2023-05-17T00:07:52.408Z,79.30
2023-05-17T00:10:20.265Z,79.50
2023-05-17T00:12:48.046Z,79.60
2023-05-17T00:15:15.827Z,79.00
2023-05-17T00:17:43.658Z,78.20
2023-05-17T00:20:12.464Z,78.30
2023-05-17T00:22:43.166Z,78.40
2023-05-17T00:25:10.933Z,78.00
2023-05-17T00:27:38.718Z,78.10
2023-05-17T00:30:08.293Z,78.60
2023-05-17T00:32:36.092Z,79.30
2023-05-17T00:35:04.182Z,79.30
2023-05-17T00:37:32.007Z,79.80
2023-05-17T00:40:01.218Z,79.70
2023-05-17T00:42:29.022Z,80.10
2023-05-17T00:44:56.856Z,79.80
2023-05-17T00:47:24.742Z,80.30
2023-05-17T00:49:52.699Z,80.50
2023-05-17T00:52:20.466Z,80.80
2023-05-17T00:54:48.264Z,80.80
2023-05-17T00:57:17.772Z,80.90
2023-05-17T00:59:46.154Z,81.50
2023-05-17T01:02:14.019Z,81.70
2023-05-17T01:04:42.523Z,82.00
2023-05-17T01:07:11.991Z,82.50
2023-05-17T01:09:39.999Z,82.20
2023-05-17T01:12:16.386Z,82.70
2023-05-17T01:14:54.416Z,83.60
2023-05-17T01:17:28.859Z,84.10
2023-05-17T01:20:06.907Z,83.80
2023-05-17T01:22:44.051Z,84.40
2023-05-17T01:25:37.034Z,84.70
2023-05-17T01:28:07.137Z,85.50
2023-05-17T01:30:36.803Z,85.40
2023-05-17T01:33:05.911Z,86.90
2023-05-17T01:35:33.981Z,87.50
2023-05-17T01:38:01.771Z,88.50
2023-05-17T01:40:30.286Z,89.60
2023-05-17T01:43:05.763Z,89.70
2023-05-17T01:45:42.352Z,90.40
2023-05-17T01:48:20.713Z,89.90
2023-05-17T01:50:51.196Z,90.60
2023-05-17T01:53:24.432Z,91.10
2023-05-17T01:55:55.026Z,90.80
2023-05-17T01:58:25.911Z,91.40
2023-05-17T02:00:57.609Z,91.50
2023-05-17T02:03:25.645Z,91.80
2023-05-17T02:05:53.514Z,91.80
2023-05-17T02:08:21.322Z,92.00
2023-05-17T02:10:49.137Z,92.20
2023-05-17T02:13:16.934Z,92.60
2023-05-17T02:15:44.673Z,92.50
2023-05-17T02:18:13.979Z,92.50
2023-05-17T02:20:41.888Z,92.40
2023-05-17T02:23:09.644Z,92.10
2023-05-17T02:25:37.442Z,92.60
2023-05-17T02:28:05.556Z,93.00
2023-05-17T02:30:33.299Z,93.30
2023-05-17T02:33:01.230Z,93.80
2023-05-17T02:35:31.048Z,93.70
2023-05-17T02:37:59.033Z,93.80
2023-05-17T02:40:26.798Z,93.70
2023-05-17T02:42:54.596Z,93.60
2023-05-17T02:45:22.404Z,93.50
2023-05-17T02:47:50.739Z,93.40
2023-05-17T02:50:18.746Z,93.60
2023-05-17T02:52:47.905Z,93.70
2023-05-17T02:55:15.862Z,93.60
2023-05-17T02:57:43.645Z,93.80
2023-05-17T03:00:11.898Z,93.60
2023-05-17T03:02:39.852Z,93.60
2023-05-17T03:05:08.688Z,93.20
2023-05-17T03:07:36.865Z,93.50
2023-05-17T03:10:07.039Z,93.50
2023-05-17T03:12:34.861Z,93.70
2023-05-17T03:15:02.915Z,94.10
2023-05-17T03:17:30.713Z,94.30
2023-05-17T03:19:58.547Z,94.50
2023-05-17T03:22:26.325Z,94.60
2023-05-17T03:24:54.088Z,94.80
2023-05-17T03:27:23.324Z,94.90
2023-05-17T03:29:51.216Z,95.20
2023-05-17T03:32:18.987Z,95.20
2023-05-17T03:34:46.764Z,94.90
2023-05-17T03:37:14.535Z,96.00
2023-05-17T03:39:42.283Z,96.20
2023-05-17T03:42:10.097Z,96.00
2023-05-17T03:44:39.266Z,96.30
2023-05-17T03:47:07.398Z,96.20
2023-05-17T03:49:35.341Z,96.50
2023-05-17T03:52:03.406Z,96.80
2023-05-17T03:54:31.309Z,95.90
2023-05-17T03:56:59.143Z,95.70
2023-05-17T03:59:26.985Z,95.80
2023-05-17T04:01:56.176Z,94.80
2023-05-17T04:04:24.197Z,94.80
2023-05-17T04:06:52.050Z,95.20
2023-05-17T04:09:19.835Z,95.20
2023-05-17T04:11:47.634Z,95.80
2023-05-17T04:14:15.905Z,95.70
2023-05-17T04:16:43.652Z,95.60
2023-05-17T04:19:12.908Z,95.20
2023-05-17T04:21:40.911Z,95.10
2023-05-17T04:24:09.076Z,94.80
2023-05-17T04:26:36.960Z,95.10
2023-05-17T04:29:04.796Z,94.60
2023-05-17T04:31:32.903Z,94.50
2023-05-17T04:34:01.171Z,93.80
2023-05-17T04:36:30.948Z,94.10
2023-05-17T04:38:59.322Z,93.70
2023-05-17T04:41:27.351Z,93.80
2023-05-17T04:43:55.146Z,93.60
2023-05-17T04:46:22.909Z,93.50
2023-05-17T04:48:50.795Z,93.60
2023-05-17T04:51:18.763Z,94.00
2023-05-17T04:53:48.023Z,93.90
2023-05-17T04:56:16.317Z,93.60
2023-05-17T04:58:44.105Z,93.50
2023-05-17T05:01:12.071Z,93.10
2023-05-17T05:03:40.005Z,92.90
2023-05-17T05:06:08.130Z,92.80
2023-05-17T05:08:37.051Z,92.50
2023-05-17T05:11:06.373Z,91.90
2023-05-17T05:13:34.239Z,91.90
2023-05-17T05:16:02.162Z,92.10
2023-05-17T05:18:29.978Z,91.40
2023-05-17T05:20:57.821Z,91.40
2023-05-17T05:23:25.871Z,91.10
2023-05-17T05:25:53.854Z,90.70
2023-05-17T05:28:23.034Z,90.50
2023-05-17T05:30:50.946Z,90.60
2023-05-17T05:33:18.785Z,90.30
2023-05-17T05:35:47.238Z,89.90
2023-05-17T05:38:15.017Z,89.00
2023-05-17T05:40:42.873Z,89.10
2023-05-17T05:43:10.642Z,88.00
2023-05-17T05:45:41.208Z,86.90
2023-05-17T05:48:09.230Z,86.20
2023-05-17T05:50:37.150Z,84.50
2023-05-17T05:53:17.178Z,83.60
2023-05-17T05:55:46.973Z,83.70
2023-05-17T05:58:14.878Z,83.00
2023-05-17T06:00:44.055Z,81.40
2023-05-17T06:03:11.917Z,80.90
2023-05-17T06:05:40.411Z,81.00
2023-05-17T06:08:08.477Z,78.40
2023-05-17T06:10:36.273Z,76.80
2023-05-17T06:13:04.052Z,75.60
2023-05-17T06:15:32.455Z,74.90
2023-05-17T06:18:01.852Z,75.00
2023-05-17T06:20:30.101Z,74.30
2023-05-17T06:22:58.262Z,74.00
2023-05-17T06:25:26.140Z,72.90
2023-05-17T06:27:53.967Z,71.70
2023-05-17T06:30:22.260Z,71.20
2023-05-17T06:32:50.115Z,71.50
2023-05-17T06:35:19.326Z,70.90
2023-05-17T06:37:47.188Z,69.10
2023-05-17T06:40:17.024Z,64.00
2023-05-17T06:42:45.285Z,55.90
2023-05-17T06:45:13.585Z,51.20
2023-05-17T06:47:41.768Z,46.10
2023-05-17T06:50:10.530Z,43.90
2023-05-17T06:52:39.708Z,42.70
2023-05-17T06:55:09.194Z,41.30
2023-05-17T06:57:37.358Z,40.70
2023-05-17T07:00:10.255Z,39.80
2023-05-17T07:02:38.232Z,39.30
2023-05-17T07:05:07.456Z,38.50
2023-05-17T07:07:35.399Z,37.10
2023-05-17T07:10:04.872Z,37.20
2023-05-17T07:12:32.799Z,37.90
2023-05-17T07:15:00.821Z,38.00
2023-05-17T07:17:30.031Z,37.30
2023-05-17T07:19:58.216Z,36.70
2023-05-17T07:22:26.172Z,37.00
2023-05-17T07:24:53.977Z,38.00
2023-05-17T07:27:23.139Z,38.00
2023-05-17T07:29:51.204Z,37.00
2023-05-17T07:32:19.033Z,37.70
2023-05-17T07:34:46.914Z,37.70
2023-05-17T07:37:14.846Z,38.00
2023-05-17T07:39:42.638Z,39.30
2023-05-17T07:42:12.866Z,38.60
2023-05-17T07:44:42.089Z,37.00
2023-05-17T07:47:09.948Z,38.20
2023-05-17T07:49:37.805Z,41.70
2023-05-17T07:52:06.049Z,44.30
2023-05-17T07:54:33.841Z,46.10
2023-05-17T07:57:01.778Z,46.80
2023-05-17T07:59:29.594Z,48.00
2023-05-17T08:02:01.699Z,49.00
2023-05-17T08:04:31.710Z,48.20
2023-05-17T08:07:01.614Z,48.00
2023-05-17T08:09:31.489Z,48.10
2023-05-17T08:12:02.460Z,48.00
2023-05-17T08:14:33.426Z,49.10
2023-05-17T08:17:04.850Z,49.70
2023-05-17T08:19:34.929Z,50.00
2023-05-17T08:22:04.890Z,50.00
2023-05-17T08:24:34.858Z,50.00
2023-05-17T08:27:04.639Z,50.70
2023-05-17T08:29:34.464Z,50.60
2023-05-17T08:32:06.281Z,51.00
2023-05-17T08:34:35.997Z,51.80
2023-05-17T08:37:06.004Z,52.20
2023-05-17T08:39:35.809Z,52.90
2023-05-17T08:42:09.475Z,53.10
2023-05-17T08:44:39.287Z,53.90
2023-05-17T08:47:13.220Z,53.60
2023-05-17T08:49:45.296Z,52.30
2023-05-17T08:52:17.627Z,51.90
2023-05-17T08:54:47.687Z,51.20
2023-05-17T08:57:19.797Z,50.30
2023-05-17T08:59:48.570Z,50.50
2023-05-17T09:02:17.859Z,51.80
2023-05-17T09:04:45.926Z,51.80
2023-05-17T09:07:16.599Z,51.90
2023-05-17T09:09:45.133Z,51.70
2023-05-17T09:12:13.010Z,52.60
2023-05-17T09:14:40.872Z,52.20
2023-05-17T09:17:08.718Z,50.40
2023-05-17T09:19:45.541Z,50.10
2023-05-17T09:22:18.807Z,49.40
2023-05-17T09:24:46.880Z,50.00
2023-05-17T09:27:16.479Z,49.70
2023-05-17T09:29:46.079Z,51.00
2023-05-17T09:32:15.132Z,51.30
2023-05-17T09:34:46.954Z,51.80
2023-05-17T09:37:15.940Z,52.10
2023-05-17T09:39:44.757Z,51.80
2023-05-17T09:42:12.770Z,50.50
2023-05-17T09:44:48.440Z,50.20
2023-05-17T09:47:27.406Z,50.70
2023-05-17T09:49:58.255Z,49.60
2023-05-17T09:52:26.884Z,48.60
2023-05-17T09:54:56.082Z,49.50
2023-05-17T09:57:24.389Z,48.60
2023-05-17T09:59:55.931Z,49.60
2023-05-17T10:02:27.588Z,51.20
2023-05-17T10:04:59.271Z,50.70
2023-05-17T10:07:28.096Z,51.10
2023-05-17T10:09:57.428Z,51.90
2023-05-17T10:12:29.380Z,50.80
2023-05-17T10:14:59.955Z,50.50
2023-05-17T10:17:29.773Z,49.90
2023-05-17T10:19:59.841Z,49.50
2023-05-17T10:22:29.005Z,48.60
2023-05-17T10:24:58.429Z,48.00
2023-05-17T10:27:27.152Z,48.70
2023-05-17T10:29:55.484Z,49.20
2023-05-17T10:32:27.099Z,48.80
2023-05-17T10:35:06.546Z,48.30
2023-05-17T10:37:41.130Z,48.50
2023-05-17T10:40:13.199Z,48.10
2023-05-17T10:42:43.411Z,47.60
2023-05-17T10:45:13.165Z,47.80
2023-05-17T10:47:42.550Z,47.90
2023-05-17T10:50:13.225Z,48.80
2023-05-17T10:52:48.146Z,48.20
2023-05-17T10:57:51.129Z,48.10
2023-05-17T11:00:22.273Z,48.90
2023-05-17T11:02:50.625Z,49.30
2023-05-17T11:05:28.220Z,50.10
2023-05-17T11:08:14.117Z,49.40
2023-05-17T11:11:09.967Z,49.60
2023-05-17T11:13:46.232Z,49.90
2023-05-17T11:16:17.981Z,49.10
2023-05-17T11:18:50.128Z,48.70
2023-05-17T11:21:18.337Z,49.00
2023-05-17T11:23:49.246Z,49.50
2023-05-17T11:26:21.707Z,48.80
2023-05-17T11:28:49.795Z,48.20
2023-05-17T11:31:17.688Z,46.70
2023-05-17T11:33:46.570Z,46.50
2023-05-17T11:36:23.728Z,45.20
2023-05-17T11:39:11.369Z,43.70
2023-05-17T11:41:41.458Z,40.90
2023-05-17T11:44:10.060Z,39.90
2023-05-17T11:46:38.921Z,39.60
2023-05-17T11:49:08.207Z,38.80
2023-05-17T11:51:36.392Z,39.90
2023-05-17T11:54:08.360Z,40.10
2023-05-17T11:56:43.376Z,40.50
2023-05-17T11:59:12.462Z,40.30
2023-05-17T12:01:47.555Z,41.70
2023-05-17T12:04:23.550Z,42.10
2023-05-17T12:06:51.637Z,41.80
2023-05-17T12:09:21.215Z,41.60
2023-05-17T12:11:49.072Z,42.10
2023-05-17T12:14:18.184Z,40.20
2023-05-17T12:16:48.984Z,39.80
2023-05-17T12:19:20.548Z,39.20
2023-05-17T12:21:48.923Z,38.50
2023-05-17T12:24:17.048Z,38.90
2023-05-17T12:26:47.339Z,39.20
2023-05-17T12:29:17.846Z,39.40
2023-05-17T12:31:49.413Z,40.20
2023-05-17T12:34:18.641Z,40.30
2023-05-17T12:36:46.908Z,40.30
2023-05-17T12:39:17.341Z,39.90
2023-05-17T12:41:46.772Z,39.80
2023-05-17T12:44:16.679Z,39.90
2023-05-17T12:46:45.324Z,39.60
2023-05-17T12:49:13.389Z,39.80
2023-05-17T12:51:43.149Z,38.80
2023-05-17T12:54:12.030Z,39.00
2023-05-17T12:56:43.443Z,38.40
2023-05-17T12:59:16.713Z,38.50
2023-05-17T13:01:45.887Z,38.70
2023-05-17T13:04:14.802Z,37.90
2023-05-17T13:06:46.655Z,37.40
2023-05-17T13:09:15.351Z,37.10
2023-05-17T13:11:43.218Z,37.70
2023-05-17T13:14:12.431Z,36.40
2023-05-17T13:16:42.768Z,37.10
2023-05-17T13:19:15.347Z,37.70
2023-05-17T13:21:43.256Z,38.40
2023-05-17T13:24:11.537Z,38.30
2023-05-17T13:26:39.306Z,38.00
2023-05-17T13:29:07.156Z,38.70
2023-05-17T13:31:35.002Z,38.70
2023-05-17T13:34:04.180Z,38.10
2023-05-17T13:36:32.057Z,38.30
2023-05-17T13:39:01.821Z,38.70
2023-05-17T13:41:29.631Z,37.60
2023-05-17T13:43:58.330Z,37.70
2023-05-17T13:46:26.322Z,37.90
2023-05-17T13:48:54.324Z,38.20
2023-05-17T13:51:25.425Z,38.50
2023-05-17T13:53:53.282Z,38.50
2023-05-17T13:56:22.166Z,38.40
2023-05-17T13:58:50.387Z,38.60
2023-05-17T14:01:18.721Z,38.20
2023-05-17T14:03:46.763Z,38.50
2023-05-17T14:06:14.648Z,37.70
2023-05-17T14:08:44.813Z,37.30
2023-05-17T14:11:12.712Z,37.80
2023-05-17T14:13:41.043Z,37.30
2023-05-17T14:16:09.122Z,37.60
2023-05-17T14:18:36.982Z,39.20
2023-05-17T14:21:05.187Z,40.40
2023-05-17T14:23:34.637Z,41.00
2023-05-17T14:26:07.139Z,41.30
2023-05-17T14:28:37.758Z,42.00
2023-05-17T14:31:05.963Z,42.20
2023-05-17T14:33:33.805Z,41.50
2023-05-17T14:36:01.721Z,41.50
2023-05-17T14:38:29.588Z,40.30
2023-05-17T14:40:57.406Z,39.80
2023-05-17T14:43:26.886Z,38.20
2023-05-17T14:45:54.666Z,38.60
2023-05-17T14:48:22.921Z,37.80
2023-05-17T14:50:51.393Z,39.00
2023-05-17T14:53:19.199Z,40.60
2023-05-17T14:55:47.560Z,40.80
2023-05-17T14:58:15.473Z,41.20
2023-05-17T15:00:48.468Z,40.40
2023-05-17T15:03:21.693Z,39.70
2023-05-17T15:05:54.564Z,41.30
2023-05-17T15:08:22.762Z,41.50
2023-05-17T15:10:51.580Z,41.60
2023-05-17T15:13:19.388Z,42.00
2023-05-17T15:15:48.512Z,41.90
2023-05-17T15:18:16.490Z,41.90
2023-05-17T15:20:44.356Z,41.80
2023-05-17T15:23:12.352Z,42.00
2023-05-17T15:25:40.229Z,42.60
2023-05-17T15:28:08.320Z,42.10
2023-05-17T15:30:36.175Z,42.10
2023-05-17T15:33:05.595Z,41.90
2023-05-17T15:35:33.802Z,43.20
2023-05-17T15:38:06.645Z,43.50
2023-05-17T15:40:34.728Z,42.30
2023-05-17T15:43:02.863Z,41.80
2023-05-17T15:45:31.225Z,41.10
2023-05-17T15:48:01.777Z,41.00
2023-05-17T15:50:31.120Z,40.90
2023-05-17T15:53:00.202Z,41.40
2023-05-17T15:55:29.866Z,41.60
2023-05-17T15:57:57.905Z,41.50
2023-05-17T16:00:26.103Z,40.60
2023-05-17T16:02:54.033Z,41.70
2023-05-17T16:05:22.131Z,42.60
2023-05-17T16:07:52.014Z,42.10
2023-05-17T16:10:19.944Z,41.90
2023-05-17T16:12:49.249Z,41.40
2023-05-17T16:15:17.225Z,40.90
2023-05-17T16:17:45.182Z,41.30
2023-05-17T16:20:13.828Z,41.70
2023-05-17T16:22:45.011Z,41.30
2023-05-17T16:25:16.826Z,40.60
2023-05-17T16:27:45.463Z,40.50
2023-05-17T16:30:13.878Z,39.90
2023-05-17T16:32:42.183Z,39.20
2023-05-17T16:35:10.691Z,38.20
2023-05-17T16:37:38.487Z,38.60
2023-05-17T16:40:07.385Z,39.90
2023-05-17T16:42:36.569Z,40.80
2023-05-17T16:45:07.057Z,42.00
2023-05-17T16:47:36.136Z,42.10
2023-05-17T16:50:05.305Z,39.60
2023-05-17T16:52:33.066Z,40.50
2023-05-17T16:55:03.385Z,40.20
2023-05-17T16:57:32.118Z,39.70
2023-05-17T17:00:01.969Z,39.60
2023-05-17T17:02:30.641Z,39.20
2023-05-17T17:04:59.171Z,39.70
2023-05-17T17:07:26.986Z,39.50
2023-05-17T17:09:54.857Z,39.30
2023-05-17T17:12:25.208Z,38.40
2023-05-17T17:14:54.116Z,38.00
2023-05-17T17:17:23.587Z,38.90
2023-05-17T17:19:52.150Z,39.50
2023-05-17T17:22:20.039Z,40.20
2023-05-17T17:24:48.096Z,39.30
2023-05-17T17:27:15.923Z,39.40
2023-05-17T17:29:43.789Z,40.10
2023-05-17T17:32:12.084Z,40.30
2023-05-17T17:34:41.299Z,40.70
2023-05-17T17:37:09.184Z,41.00
2023-05-17T17:39:37.783Z,41.50
2023-05-17T17:42:05.853Z,42.20
2023-05-17T17:44:33.648Z,42.80
2023-05-17T17:47:01.579Z,44.00
2023-05-17T17:49:30.034Z,43.70
2023-05-17T17:51:59.198Z,44.10
2023-05-17T17:54:26.975Z,44.00
2023-05-17T17:56:54.724Z,44.10
2023-05-17T17:59:22.583Z,44.30
2023-05-17T18:01:52.647Z,44.40
2023-05-17T18:04:20.806Z,45.20
2023-05-17T18:06:49.985Z,45.50
2023-05-17T18:09:19.165Z,46.10
2023-05-17T18:11:47.051Z,46.50
2023-05-17T18:14:15.571Z,47.30
2023-05-17T18:16:43.513Z,47.50
2023-05-17T18:19:11.658Z,47.60
2023-05-17T18:21:39.562Z,47.30
2023-05-17T18:24:08.163Z,47.40
2023-05-17T18:26:37.543Z,46.60
2023-05-17T18:29:05.416Z,46.80
2023-05-17T18:31:33.404Z,47.10
2023-05-17T18:34:01.250Z,47.00
2023-05-17T18:36:29.130Z,46.90
2023-05-17T18:38:58.511Z,47.00
2023-05-17T18:41:26.985Z,47.30
2023-05-17T18:44:01.378Z,47.80
2023-05-17T18:46:29.976Z,47.50
2023-05-17T18:48:58.043Z,48.40
2023-05-17T18:51:25.877Z,48.40
2023-05-17T18:53:53.726Z,48.60
2023-05-17T18:56:23.198Z,49.20
2023-05-17T18:58:52.636Z,48.90
2023-05-17T19:01:21.837Z,49.30
2023-05-17T19:03:51.428Z,49.70
2023-05-17T19:06:19.433Z,49.80
2023-05-17T19:08:47.496Z,49.90
2023-05-17T19:11:15.345Z,50.10
2023-05-17T19:13:43.278Z,50.70
2023-05-17T19:16:11.247Z,50.60
2023-05-17T19:18:40.409Z,51.10
2023-05-17T19:21:08.448Z,51.20
2023-05-17T19:23:36.353Z,51.60
2023-05-17T19:26:04.195Z,52.00
2023-05-17T19:28:32.987Z,52.70
2023-05-17T19:31:00.821Z,53.40
2023-05-17T19:33:28.610Z,53.10
2023-05-17T19:35:57.693Z,52.90
2023-05-17T19:38:25.492Z,52.60
2023-05-17T19:40:53.346Z,52.60
2023-05-17T19:43:21.129Z,53.00
2023-05-17T19:45:48.959Z,53.20
2023-05-17T19:48:17.346Z,53.30
2023-05-17T19:50:45.168Z,53.60
2023-05-17T19:53:14.263Z,53.90
2023-05-17T19:55:42.153Z,54.30
2023-05-17T19:58:09.954Z,55.20
2023-05-17T20:00:38.330Z,55.20
2023-05-17T20:03:06.306Z,55.70
2023-05-17T20:05:34.242Z,55.20
2023-05-17T20:08:02.503Z,55.30
2023-05-17T20:10:32.205Z,55.20
2023-05-17T20:13:00.221Z,56.00
2023-05-17T20:15:28.093Z,56.40
2023-05-17T20:17:56.110Z,56.60
2023-05-17T20:20:24.953Z,56.10
2023-05-17T20:22:52.838Z,56.10
2023-05-17T20:25:21.082Z,55.50
2023-05-17T20:27:50.185Z,55.80
2023-05-17T20:30:17.976Z,55.80
2023-05-17T20:32:45.880Z,56.30
2023-05-17T20:35:13.768Z,55.50
2023-05-17T20:37:41.536Z,55.30
2023-05-17T20:40:10.642Z,54.90
2023-05-17T20:42:40.255Z,54.80
2023-05-17T20:45:12.089Z,54.20
2023-05-17T20:47:41.791Z,53.80
2023-05-17T20:50:12.090Z,52.80
2023-05-17T20:52:40.139Z,51.60
2023-05-17T20:55:09.563Z,51.70
2023-05-17T20:57:37.456Z,52.20
2023-05-17T21:00:08.130Z,51.80
2023-05-17T21:02:38.620Z,52.00
2023-05-17T21:05:06.672Z,52.00
2023-05-17T21:07:35.131Z,52.00
2023-05-17T21:10:03.109Z,52.00
2023-05-17T21:12:31.099Z,51.70
2023-05-17T21:15:15.153Z,52.00
2023-05-17T21:17:45.490Z,51.70
2023-05-17T21:20:14.229Z,51.80
2023-05-17T21:22:42.010Z,51.50
2023-05-17T21:25:11.051Z,52.10
2023-05-17T21:27:38.878Z,52.10
2023-05-17T21:30:07.893Z,51.60
2023-05-17T21:32:35.937Z,51.90
2023-05-17T21:35:05.617Z,51.60
2023-05-17T21:37:33.457Z,51.10
2023-05-17T21:40:01.325Z,51.40
2023-05-17T21:42:29.292Z,52.20
2023-05-17T21:44:57.355Z,51.50
2023-05-17T21:47:25.319Z,51.40
2023-05-17T21:49:53.213Z,51.50
2023-05-17T21:52:22.514Z,51.40
2023-05-17T21:54:50.684Z,52.20
2023-05-17T21:57:21.254Z,51.40
2023-05-17T21:59:49.870Z,51.50
2023-05-17T22:02:17.974Z,51.60
2023-05-17T22:04:46.050Z,51.40
2023-05-17T22:07:14.240Z,51.80
2023-05-17T22:09:45.582Z,52.10
2023-05-17T22:12:13.709Z,52.50
2023-05-17T22:14:43.290Z,52.60
2023-05-17T22:17:11.250Z,52.60
2023-05-17T22:19:40.394Z,52.50
2023-05-17T22:22:08.638Z,52.40
2023-05-17T22:24:36.522Z,52.20
2023-05-17T22:27:06.093Z,51.60
2023-05-17T22:29:34.471Z,52.30
2023-05-17T22:32:02.407Z,52.60
2023-05-17T22:34:30.211Z,53.00
2023-05-17T22:36:58.292Z,53.10
2023-05-17T22:39:26.279Z,53.20
2023-05-17T22:41:54.031Z,53.50
2023-05-17T22:44:23.121Z,53.30
2023-05-17T22:46:51.042Z,52.60
2023-05-17T22:49:20.120Z,52.20
2023-05-17T22:51:47.912Z,52.50
2023-05-17T22:54:15.714Z,52.90
2023-05-17T22:56:43.577Z,52.70
2023-05-17T22:59:11.640Z,52.60
2023-05-17T23:01:40.805Z,52.70
2023-05-17T23:04:08.715Z,52.70
2023-05-17T23:06:36.593Z,52.40
2023-05-17T23:09:05.330Z,52.70
2023-05-17T23:11:34.700Z,52.80
2023-05-17T23:14:02.646Z,52.60
2023-05-17T23:16:30.579Z,52.40
2023-05-17T23:18:59.998Z,52.20
2023-05-17T23:21:27.847Z,52.10
2023-05-17T23:23:55.961Z,52.20
2023-05-17T23:26:23.703Z,52.00
2023-05-17T23:28:53.457Z,52.10
2023-05-17T23:31:21.712Z,52.20
2023-05-17T23:33:49.591Z,52.30
2023-05-17T23:36:20.585Z,51.80
2023-05-17T23:38:48.468Z,52.00
2023-05-17T23:41:18.137Z,52.00
2023-05-17T23:43:46.673Z,52.20
2023-05-17T23:46:19.660Z,51.90
2023-05-17T23:48:50.117Z,52.00
2023-05-17T23:51:20.681Z,52.30
2023-05-17T23:53:48.764Z,52.40
2023-05-17T23:56:17.627Z,52.00
2023-05-17T23:58:45.621Z,52.60
